createdAt,value
2023-04-30T00:03:36.874Z,46.15
2023-04-30T00:08:52.308Z,46.72
2023-04-30T00:14:00.814Z,53.15
2023-04-30T00:19:17.798Z,53.37
2023-04-30T00:24:25.428Z,55.30
2023-04-30T00:29:33.370Z,53.25
2023-04-30T00:34:43.605Z,52.83
2023-04-30T00:40:08.524Z,55.03
2023-04-30T00:45:17.631Z,54.50
2023-04-30T00:50:25.666Z,53.45
2023-04-30T00:55:30.165Z,55.05
2023-04-30T01:06:12.707Z,53.70
2023-04-30T01:11:26.337Z,56.75
2023-04-30T01:16:49.390Z,48.45
2023-04-30T01:22:05.391Z,56.67
2023-04-30T01:27:21.289Z,51.17
2023-04-30T01:33:21.349Z,56.47
2023-04-30T01:38:43.015Z,60.10
2023-04-30T01:44:14.336Z,56.20
2023-04-30T01:49:31.017Z,52.95
2023-04-30T01:54:52.404Z,59.00
2023-04-30T02:00:07.643Z,61.00
2023-04-30T02:05:20.533Z,53.22
2023-04-30T02:10:36.890Z,57.70
2023-04-30T02:15:56.942Z,64.15
2023-04-30T02:21:14.911Z,56.70
2023-04-30T02:26:29.368Z,64.47
2023-04-30T02:32:06.401Z,53.47
2023-04-30T02:37:13.271Z,61.85
2023-04-30T02:42:18.483Z,62.22
2023-04-30T02:47:22.344Z,63.58
2023-04-30T02:52:26.302Z,64.13
2023-04-30T02:57:35.311Z,58.38
2023-04-30T03:02:39.127Z,65.63
2023-04-30T03:07:43.150Z,67.32
2023-04-30T03:12:49.284Z,61.67
2023-04-30T03:17:55.808Z,67.70
2023-04-30T03:23:00.404Z,62.42
2023-04-30T03:28:08.154Z,64.90
2023-04-30T03:33:12.676Z,67.78
2023-04-30T03:38:16.973Z,69.90
2023-04-30T03:43:23.780Z,67.82
2023-04-30T03:48:33.743Z,74.68
2023-04-30T03:53:39.223Z,67.20
2023-04-30T03:58:48.606Z,69.20
2023-04-30T04:03:54.717Z,70.45
2023-04-30T04:08:59.395Z,70.32
2023-04-30T04:14:09.774Z,68.97
2023-04-30T04:19:47.296Z,71.38
2023-04-30T04:25:02.101Z,72.45
2023-04-30T04:30:10.874Z,69.78
2023-04-30T04:35:16.541Z,74.22
2023-04-30T04:40:21.047Z,67.07
2023-04-30T04:45:29.403Z,70.95
2023-04-30T04:50:34.771Z,74.30
2023-04-30T04:55:42.256Z,63.70
2023-04-30T05:00:53.072Z,61.60
2023-04-30T05:06:15.331Z,64.07
2023-04-30T05:11:53.202Z,67.85
2023-04-30T05:17:06.065Z,65.45
2023-04-30T05:22:10.086Z,61.95
2023-04-30T05:28:01.484Z,57.88
2023-04-30T05:33:48.934Z,59.67
2023-04-30T05:39:06.118Z,62.75
2023-04-30T05:44:18.283Z,61.58
2023-04-30T05:50:39.870Z,56.45
2023-04-30T05:55:45.632Z,65.53
2023-04-30T06:00:53.519Z,52.85
2023-04-30T06:05:57.923Z,55.25
2023-04-30T06:11:35.355Z,53.58
2023-04-30T06:16:42.898Z,57.28
2023-04-30T06:21:49.571Z,51.17
2023-04-30T06:26:56.648Z,48.63
2023-04-30T06:32:00.378Z,50.72
2023-04-30T06:37:05.042Z,49.55
2023-04-30T06:42:36.840Z,42.83
2023-04-30T06:48:21.183Z,42.00
2023-04-30T06:53:33.808Z,41.45
2023-04-30T06:59:08.352Z,36.75
2023-04-30T07:04:13.460Z,35.78
2023-04-30T07:09:23.109Z,29.08
2023-04-30T07:14:37.640Z,30.38
2023-04-30T07:19:46.392Z,27.67
2023-04-30T07:24:50.878Z,23.85
2023-04-30T07:29:58.986Z,23.80
2023-04-30T07:35:03.118Z,21.80
2023-04-30T07:40:21.922Z,18.75
2023-04-30T07:45:34.923Z,18.88
2023-04-30T07:50:40.151Z,13.35
2023-04-30T07:55:48.899Z,13.65
2023-04-30T08:00:58.264Z,11.48
2023-04-30T08:06:07.369Z,11.52
2023-04-30T08:11:13.578Z,9.93
2023-04-30T08:16:22.904Z,6.20
2023-04-30T08:21:28.998Z,6.82
2023-04-30T08:26:34.373Z,8.65
2023-04-30T08:31:39.708Z,5.18
2023-04-30T08:36:50.188Z,7.63
2023-04-30T08:41:58.319Z,5.95
2023-04-30T08:47:07.146Z,5.45
2023-04-30T08:52:12.808Z,3.58
2023-04-30T08:57:16.997Z,6.28
2023-04-30T09:02:27.172Z,2.78
2023-04-30T09:08:05.343Z,2.53
2023-04-30T09:13:12.707Z,3.88
2023-04-30T09:18:32.680Z,3.28
2023-04-30T09:23:57.997Z,3.05
2023-04-30T09:29:34.663Z,5.00
2023-04-30T09:34:41.765Z,3.13
2023-04-30T09:39:51.145Z,4.38
2023-04-30T09:44:56.938Z,2.70
2023-04-30T09:51:10.298Z,3.45
2023-04-30T09:56:47.180Z,2.70
2023-04-30T10:01:58.009Z,3.78
2023-04-30T10:07:06.184Z,2.83
2023-04-30T10:12:15.115Z,2.85
2023-04-30T10:17:20.311Z,3.70
2023-04-30T10:23:04.887Z,3.70
2023-04-30T10:28:58.855Z,2.80
2023-04-30T10:34:23.318Z,2.63
2023-04-30T10:39:29.644Z,2.42
2023-04-30T10:44:34.736Z,2.30
2023-04-30T10:49:54.275Z,4.88
2023-04-30T10:55:14.380Z,2.10
2023-04-30T11:00:40.364Z,3.20
2023-04-30T11:05:48.199Z,2.40
2023-04-30T11:11:03.159Z,20.55
2023-04-30T11:16:58.187Z,3.58
2023-04-30T11:22:18.461Z,17.63
2023-04-30T11:27:25.078Z,3.13
2023-04-30T11:32:35.918Z,2.85
2023-04-30T11:37:41.646Z,2.13
2023-04-30T11:42:54.731Z,3.22
2023-04-30T11:48:01.377Z,2.25
2023-04-30T11:53:13.046Z,1.80
2023-04-30T11:58:25.902Z,1.95
2023-04-30T12:03:34.880Z,1.77
2023-04-30T12:08:42.659Z,1.27
2023-04-30T12:13:57.174Z,1.60
2023-04-30T12:19:04.005Z,2.47
2023-04-30T12:24:33.310Z,1.80
2023-04-30T12:29:45.208Z,1.17
2023-04-30T12:34:49.210Z,2.55
2023-04-30T12:39:57.557Z,1.38
2023-04-30T12:45:11.106Z,2.20
2023-04-30T12:50:16.913Z,1.90
2023-04-30T12:55:23.312Z,1.15
2023-04-30T13:00:29.718Z,1.77
2023-04-30T13:05:34.908Z,1.33
2023-04-30T13:10:42.456Z,1.80
2023-04-30T13:15:51.950Z,1.88
2023-04-30T13:20:57.964Z,1.45
2023-04-30T13:26:03.286Z,1.40
2023-04-30T13:31:11.327Z,2.10
2023-04-30T13:36:17.607Z,2.65
2023-04-30T13:41:22.677Z,1.95
2023-04-30T13:46:28.082Z,1.50
2023-04-30T13:51:37.160Z,1.42
2023-04-30T13:56:53.853Z,2.17
2023-04-30T14:02:02.454Z,1.90
2023-04-30T14:07:26.423Z,8.13
2023-04-30T14:12:32.601Z,2.17
2023-04-30T14:17:38.388Z,1.83
2023-04-30T14:22:42.657Z,2.17
2023-04-30T14:27:47.710Z,1.05
2023-04-30T14:32:55.450Z,1.98
2023-04-30T14:38:04.994Z,1.65
2023-04-30T14:43:21.876Z,2.42
2023-04-30T14:49:01.191Z,2.38
2023-04-30T14:54:17.979Z,1.67
2023-04-30T14:59:27.309Z,2.05
2023-04-30T15:05:01.170Z,2.10
2023-04-30T15:10:14.639Z,2.07
2023-04-30T15:15:19.135Z,1.13
2023-04-30T15:20:36.784Z,1.80
2023-04-30T15:25:46.237Z,1.83
2023-04-30T15:31:24.101Z,1.10
2023-04-30T15:36:33.005Z,1.80
2023-04-30T15:42:06.158Z,4.68
2023-04-30T15:47:46.879Z,1.35
2023-04-30T15:53:34.613Z,3.10
2023-04-30T15:58:39.822Z,3.83
2023-04-30T16:03:46.299Z,1.30
2023-04-30T16:09:22.686Z,1.42
2023-04-30T16:14:30.109Z,1.13
2023-04-30T16:19:46.122Z,3.05
2023-04-30T16:24:57.276Z,2.83
2023-04-30T16:30:08.965Z,3.40
2023-04-30T16:35:13.376Z,2.22
2023-04-30T16:40:37.452Z,2.88
2023-04-30T16:45:47.481Z,1.60
2023-04-30T16:50:53.406Z,1.48
2023-04-30T16:56:11.469Z,2.22
2023-04-30T17:01:20.048Z,2.22
2023-04-30T17:06:24.135Z,2.33
2023-04-30T17:11:38.635Z,1.38
2023-04-30T17:16:47.160Z,2.85
2023-04-30T17:22:01.232Z,2.65
2023-04-30T17:27:11.843Z,2.63
2023-04-30T17:32:18.661Z,1.40
2023-04-30T17:37:33.800Z,1.67
2023-04-30T17:42:43.169Z,1.33
2023-04-30T17:47:54.418Z,2.55
2023-04-30T17:53:00.153Z,2.85
2023-04-30T17:58:10.203Z,3.53
2023-04-30T18:03:13.551Z,1.45
2023-04-30T18:08:17.853Z,3.70
2023-04-30T18:13:23.048Z,2.78
2023-04-30T18:18:26.687Z,2.00
2023-04-30T18:23:34.987Z,2.53
2023-04-30T18:28:40.366Z,2.22
2023-04-30T18:33:47.259Z,1.67
2023-04-30T18:38:52.935Z,3.45
2023-04-30T18:43:58.515Z,1.95
2023-04-30T18:49:12.356Z,2.30
2023-04-30T18:54:15.976Z,1.50
2023-04-30T18:59:22.301Z,1.80
2023-04-30T19:04:25.546Z,5.28
2023-04-30T19:09:31.597Z,2.67
2023-04-30T19:14:37.530Z,3.42
2023-04-30T19:19:41.088Z,2.53
2023-04-30T19:24:45.236Z,3.20
2023-04-30T19:29:51.643Z,2.90
2023-04-30T19:34:55.466Z,5.13
2023-04-30T19:39:58.899Z,2.80
2023-04-30T19:45:04.621Z,4.68
2023-04-30T19:50:09.908Z,3.78
2023-04-30T19:55:13.998Z,3.33
2023-04-30T20:00:24.188Z,3.50
2023-04-30T20:05:28.683Z,3.28
2023-04-30T20:10:31.844Z,2.20
2023-04-30T20:15:36.565Z,2.72
2023-04-30T20:20:39.864Z,5.07
2023-04-30T20:25:45.540Z,3.45
2023-04-30T20:30:50.631Z,3.28
2023-04-30T20:35:53.871Z,3.53
2023-04-30T20:40:58.186Z,2.95
2023-04-30T20:46:03.392Z,3.95
2023-04-30T20:51:07.015Z,4.63
2023-04-30T20:56:12.416Z,3.83
2023-04-30T21:01:17.919Z,3.30
2023-04-30T21:06:22.311Z,3.00
2023-04-30T21:11:26.208Z,5.45
2023-04-30T21:16:32.466Z,4.50
2023-04-30T21:21:36.478Z,5.07
2023-04-30T21:26:40.519Z,2.97
2023-04-30T21:31:47.689Z,3.95
2023-04-30T21:36:52.560Z,5.05
2023-04-30T21:41:56.036Z,4.65
2023-04-30T21:47:02.166Z,4.93
2023-04-30T21:52:08.568Z,6.82
2023-04-30T21:57:12.630Z,7.35
2023-04-30T22:02:23.894Z,6.13
2023-04-30T22:07:28.445Z,3.65
2023-04-30T22:12:32.931Z,3.05
2023-04-30T22:17:37.930Z,9.45
2023-04-30T22:22:41.820Z,5.20
2023-04-30T22:27:47.668Z,4.07
2023-04-30T22:32:57.192Z,5.35
2023-04-30T22:43:08.417Z,7.70
2023-04-30T22:48:13.986Z,5.60
2023-04-30T22:53:17.738Z,4.50
2023-04-30T22:58:21.973Z,6.57
2023-04-30T23:03:27.840Z,3.38
2023-04-30T23:08:32.564Z,4.65
2023-04-30T23:13:36.374Z,4.45
2023-04-30T23:18:41.318Z,4.22
2023-04-30T23:23:45.072Z,6.25
2023-04-30T23:28:48.522Z,3.97
2023-04-30T23:33:55.336Z,7.72
2023-04-30T23:38:59.156Z,5.30
2023-04-30T23:44:03.010Z,5.00
2023-04-30T23:49:10.054Z,5.10
2023-04-30T23:54:13.955Z,4.55
2023-04-30T23:59:17.304Z,4.53
